CheckWX is a tool to help pilots better visualize weather data.  It is not intended as a substitute for an official pre-flight weather briefing.

14:47:44 UTC

FAWK TAF
Waterkloof Air Force Base Airport
Pretoria, South Africa
TAF FAWK 231152Z 2310/2318 VRB03KT 9999 SCT035 TX27/2313Z TN22/2318Z PROB30 TEMPO 2312/2315 FEW035TCU

Mar-23@
10:00 UTC

Mar-23 @ 10:00 UTC

Mar-23@
18:00 UTC

Mar-23 @ 18:00 UTC

TAF FAWK 231152Z 2310/2318 VRB03KT 9999 SCT035 TX27/2313Z TN22/2318Z
Wind
  • Variable at 3 KTS
Cloud Levels
  • Scattered at 3,500' AGL

Mar-23@
12:00 UTC

Mar-23 @ 12:00 UTC

Mar-23@
15:00 UTC

Mar-23 @ 15:00 UTC

PROB30 TEMPO 2312/2315 FEW035TCU

Temporary - 30% Likelihood

Temporary - 30% Likelihood during this time.

Cloud Levels
  • Few at 3,500' AGL